This is the latest recevied weather packets stored in our database for station/object KJ5HMU-13. If no packets are shown the sender has not sent any weather packets the latest 1 day(s).
| Time | Temp. | Humidity | Pressure | Rain* | Wind** | Luminosity | Snow |
|---|---|---|---|---|---|---|---|
| 1778018903 | 2.22° C | 89% | 1016.6 hPa | 1.78 mm | 0.89 m/s, 24° | 34 W/m² | - |
| 1778018600 | 2.22° C | 89% | 1016.9 hPa | 1.78 mm | 0.89 m/s, 8° | 34 W/m² | - |
| 1778018299 | 2.78° C | 90% | 1016.5 hPa | 3.05 mm | 0.45 m/s, 40° | 49 W/m² | - |
| 1778017996 | 2.78° C | 91% | 1016.6 hPa | 1.27 mm | 1.79 m/s, 22° | 39 W/m² | - |
| 1778017694 | 2.22° C | 93% | 1016.5 hPa | 1.78 mm | 0.89 m/s, 136° | 108 W/m² | - |
| 1778017391 | 1.67° C | 93% | 1016.4 hPa | 1.78 mm | 0 m/s | 54 W/m² | - |
| 1778017088 | 1.67° C | 92% | 1016.2 hPa | 0 mm | 0.45 m/s, 6° | 21 W/m² | - |
| 1778016786 | 1.67° C | 90% | 1016.1 hPa | 0 mm | 1.34 m/s, 8° | 34 W/m² | - |
| 1778016481 | 2.78° C | 88% | 1016.1 hPa | 0 mm | 0.45 m/s, 7° | 17 W/m² | - |
| 1778016179 | 3.33° C | 87% | 1016 hPa | 0 mm | 1.34 m/s, 18° | 7 W/m² | - |
| 1778015875 | 3.89° C | 87% | 1015.3 hPa | 0 mm | 0.45 m/s, 266° | 13 W/m² | - |
| 1778015573 | 4.44° C | 84% | 1015.7 hPa | 0 mm | 1.34 m/s, 22° | 34 W/m² | - |
| 1778015269 | 5° C | 79% | 1015.3 hPa | 0 mm | 0.45 m/s, 336° | 80 W/m² | - |
| 1778014966 | 5.56° C | 74% | 1015.5 hPa | 0 mm | 0.89 m/s, 28° | 34 W/m² | - |
| 1778014663 | 6.11° C | 76% | 1015.3 hPa | 0 mm | 0.89 m/s, 349° | 47 W/m² | - |
| 1778014362 | 6.67° C | 73% | 1015.3 hPa | 0 mm | 0.89 m/s, 21° | 123 W/m² | - |
| 1778014058 | 6.67° C | 75% | 1015.3 hPa | 0 mm | 0.89 m/s, 13° | 261 W/m² | - |
| 1778013756 | 6.67° C | 74% | 1015.3 hPa | 0 mm | 1.34 m/s, 29° | 278 W/m² | - |
| 1778013452 | 6.11° C | 75% | 1015.6 hPa | 0 mm | 0 m/s | 249 W/m² | - |
| 1778013150 | 6.11° C | 76% | 1015.8 hPa | 0 mm | 0.45 m/s, 8° | 702 W/m² | - |
| 1778012845 | 6.11° C | 78% | 1016 hPa | 0 mm | 0.89 m/s, 62° | 226 W/m² | - |
| 1778012541 | 5.56° C | 80% | 1016 hPa | 0 mm | 1.34 m/s, 356° | 163 W/m² | - |
| 1778012238 | 6.11° C | 79% | 1016 hPa | 0 mm | 0 m/s | 122 W/m² | - |
| 1778011936 | 5.56° C | 78% | 1016 hPa | 0 mm | 0.45 m/s, 42° | 154 W/m² | - |
| 1778011634 | 5.56° C | 81% | 1016.1 hPa | 0 mm | 0.89 m/s, 25° | 230 W/m² | - |
* Rain latest hour (hover to see other rain measurements)
** Current wind speed in m/s (hover to see current wind gust speed)